Terminal Aerodrome Forecast
Issued by NWS

Home | Current Version | Previous Version | Text Only | Print | Product List | Glossary On
Versions: 1 2 3 4 5 6 7 8 9 10 11 12 13 14 15 16 17 18 19 20 21 22 23 24 25 26 27 28 29 30 31 32 33 34 35 36 37 38 39 40
000
FTUS44 KLZK 200837 AAA
TAFADF
TAF AMD
KADF 200837Z 2009/2106 VRB03KT 6SM BR BKN250
      TEMPO 2009/2011 1SM BR BKN002
     FM201100 VRB03KT 3SM BR SCT005 BKN250
      TEMPO 2011/2013 1/2SM FG BKN002
     FM201500 15006KT P6SM BKN250=

USA.gov is the U.S. government's official web portal to all federal, state and local government web resources and services.